sensor_id;sensor_type;location;lat;lon;timestamp;P1;durP1;ratioP1;P2;durP2;ratioP2
1545;SDS011;766;51.502;9.752;2023-08-07T00:00:19;5.18;;;3.17;;
1545;SDS011;766;51.502;9.752;2023-08-07T00:02:48;4.53;;;3.20;;
1545;SDS011;766;51.502;9.752;2023-08-07T00:05:17;4.28;;;3.30;;
1545;SDS011;766;51.502;9.752;2023-08-07T00:07:47;3.10;;;2.65;;
1545;SDS011;766;51.502;9.752;2023-08-07T00:10:15;5.40;;;3.30;;
1545;SDS011;766;51.502;9.752;2023-08-07T00:12:44;4.03;;;2.58;;
1545;SDS011;766;51.502;9.752;2023-08-07T00:15:13;4.95;;;2.95;;
1545;SDS011;766;51.502;9.752;2023-08-07T00:17:41;7.10;;;3.05;;
1545;SDS011;766;51.502;9.752;2023-08-07T00:20:10;4.00;;;2.13;;
1545;SDS011;766;51.502;9.752;2023-08-07T00:22:39;5.35;;;2.53;;
1545;SDS011;766;51.502;9.752;2023-08-07T00:25:09;7.00;;;3.20;;
1545;SDS011;766;51.502;9.752;2023-08-07T00:27:38;2.85;;;2.25;;
1545;SDS011;766;51.502;9.752;2023-08-07T00:30:06;3.58;;;2.13;;
1545;SDS011;766;51.502;9.752;2023-08-07T00:32:35;4.30;;;2.30;;
1545;SDS011;766;51.502;9.752;2023-08-07T00:35:04;5.40;;;2.42;;
1545;SDS011;766;51.502;9.752;2023-08-07T00:37:34;3.63;;;2.30;;
1545;SDS011;766;51.502;9.752;2023-08-07T00:40:03;3.25;;;2.28;;
1545;SDS011;766;51.502;9.752;2023-08-07T00:42:33;6.93;;;2.40;;
1545;SDS011;766;51.502;9.752;2023-08-07T00:45:02;5.13;;;2.30;;
1545;SDS011;766;51.502;9.752;2023-08-07T00:47:31;4.35;;;2.08;;
1545;SDS011;766;51.502;9.752;2023-08-07T00:50:00;2.90;;;2.17;;
1545;SDS011;766;51.502;9.752;2023-08-07T00:52:30;4.43;;;2.15;;
1545;SDS011;766;51.502;9.752;2023-08-07T00:54:59;4.90;;;2.17;;
1545;SDS011;766;51.502;9.752;2023-08-07T00:57:28;3.10;;;1.58;;
1545;SDS011;766;51.502;9.752;2023-08-07T00:59:59;5.22;;;2.28;;
1545;SDS011;766;51.502;9.752;2023-08-07T01:02:27;5.38;;;2.28;;
1545;SDS011;766;51.502;9.752;2023-08-07T01:04:56;5.18;;;2.83;;
1545;SDS011;766;51.502;9.752;2023-08-07T01:07:25;4.38;;;2.17;;
1545;SDS011;766;51.502;9.752;2023-08-07T01:09:53;2.70;;;2.03;;
1545;SDS011;766;51.502;9.752;2023-08-07T01:12:24;3.33;;;2.13;;
1545;SDS011;766;51.502;9.752;2023-08-07T01:15:01;3.20;;;2.35;;
1545;SDS011;766;51.502;9.752;2023-08-07T01:17:30;3.88;;;2.33;;
1545;SDS011;766;51.502;9.752;2023-08-07T01:20:00;4.30;;;2.45;;
1545;SDS011;766;51.502;9.752;2023-08-07T01:22:30;5.97;;;2.40;;
1545;SDS011;766;51.502;9.752;2023-08-07T01:24:59;3.55;;;2.17;;
1545;SDS011;766;51.502;9.752;2023-08-07T01:27:31;7.05;;;3.25;;
1545;SDS011;766;51.502;9.752;2023-08-07T01:30:02;2.80;;;2.00;;
1545;SDS011;766;51.502;9.752;2023-08-07T01:32:39;6.45;;;2.50;;
1545;SDS011;766;51.502;9.752;2023-08-07T01:35:11;4.78;;;2.00;;
1545;SDS011;766;51.502;9.752;2023-08-07T01:37:41;3.88;;;1.95;;
1545;SDS011;766;51.502;9.752;2023-08-07T01:40:10;2.90;;;2.15;;
1545;SDS011;766;51.502;9.752;2023-08-07T01:42:49;5.20;;;2.10;;
1545;SDS011;766;51.502;9.752;2023-08-07T01:45:22;5.65;;;1.95;;
1545;SDS011;766;51.502;9.752;2023-08-07T01:47:51;4.40;;;1.60;;
1545;SDS011;766;51.502;9.752;2023-08-07T01:50:20;4.40;;;2.13;;
1545;SDS011;766;51.502;9.752;2023-08-07T01:52:50;3.22;;;2.17;;
1545;SDS011;766;51.502;9.752;2023-08-07T01:55:20;3.42;;;1.75;;
1545;SDS011;766;51.502;9.752;2023-08-07T01:57:49;3.80;;;1.60;;
1545;SDS011;766;51.502;9.752;2023-08-07T02:00:18;2.58;;;1.52;;
1545;SDS011;766;51.502;9.752;2023-08-07T02:02:49;3.75;;;1.60;;
1545;SDS011;766;51.502;9.752;2023-08-07T02:05:18;2.13;;;1.40;;
1545;SDS011;766;51.502;9.752;2023-08-07T02:07:47;2.22;;;1.27;;
1545;SDS011;766;51.502;9.752;2023-08-07T02:10:17;2.63;;;1.40;;
1545;SDS011;766;51.502;9.752;2023-08-07T02:12:46;1.73;;;1.00;;
1545;SDS011;766;51.502;9.752;2023-08-07T02:15:15;1.20;;;1.00;;
1545;SDS011;766;51.502;9.752;2023-08-07T02:17:43;1.60;;;1.17;;
1545;SDS011;766;51.502;9.752;2023-08-07T02:20:12;2.50;;;1.10;;
1545;SDS011;766;51.502;9.752;2023-08-07T02:22:41;2.75;;;1.00;;
1545;SDS011;766;51.502;9.752;2023-08-07T02:25:12;4.75;;;0.98;;
1545;SDS011;766;51.502;9.752;2023-08-07T02:27:42;3.10;;;0.93;;
1545;SDS011;766;51.502;9.752;2023-08-07T02:30:11;2.40;;;0.98;;
1545;SDS011;766;51.502;9.752;2023-08-07T02:32:39;0.77;;;0.70;;
1545;SDS011;766;51.502;9.752;2023-08-07T02:35:11;1.27;;;0.90;;
1545;SDS011;766;51.502;9.752;2023-08-07T02:37:39;1.55;;;0.70;;
1545;SDS011;766;51.502;9.752;2023-08-07T02:40:08;1.98;;;0.93;;
1545;SDS011;766;51.502;9.752;2023-08-07T02:42:39;0.70;;;0.70;;
1545;SDS011;766;51.502;9.752;2023-08-07T02:45:11;0.80;;;0.80;;
1545;SDS011;766;51.502;9.752;2023-08-07T02:47:40;2.60;;;1.00;;
1545;SDS011;766;51.502;9.752;2023-08-07T02:50:08;1.25;;;0.70;;
1545;SDS011;766;51.502;9.752;2023-08-07T02:52:37;0.68;;;0.63;;
1545;SDS011;766;51.502;9.752;2023-08-07T02:55:05;0.80;;;0.50;;
1545;SDS011;766;51.502;9.752;2023-08-07T02:57:34;2.67;;;0.70;;
1545;SDS011;766;51.502;9.752;2023-08-07T03:00:05;1.13;;;0.60;;
1545;SDS011;766;51.502;9.752;2023-08-07T03:02:34;1.20;;;0.70;;
1545;SDS011;766;51.502;9.752;2023-08-07T03:05:03;4.63;;;0.80;;
1545;SDS011;766;51.502;9.752;2023-08-07T03:07:32;1.52;;;0.80;;
1545;SDS011;766;51.502;9.752;2023-08-07T03:10:00;1.33;;;1.20;;
1545;SDS011;766;51.502;9.752;2023-08-07T03:12:30;1.33;;;1.20;;
1545;SDS011;766;51.502;9.752;2023-08-07T03:14:59;3.80;;;1.30;;
1545;SDS011;766;51.502;9.752;2023-08-07T03:17:28;2.10;;;1.15;;
1545;SDS011;766;51.502;9.752;2023-08-07T03:19:57;1.58;;;1.40;;
1545;SDS011;766;51.502;9.752;2023-08-07T03:22:25;1.75;;;1.58;;
1545;SDS011;766;51.502;9.752;2023-08-07T03:24:53;2.00;;;1.50;;
1545;SDS011;766;51.502;9.752;2023-08-07T03:27:22;2.80;;;1.52;;
1545;SDS011;766;51.502;9.752;2023-08-07T03:29:50;2.13;;;1.55;;
1545;SDS011;766;51.502;9.752;2023-08-07T03:32:19;2.33;;;1.60;;
1545;SDS011;766;51.502;9.752;2023-08-07T03:34:48;2.40;;;1.52;;
1545;SDS011;766;51.502;9.752;2023-08-07T03:37:17;1.60;;;1.50;;
1545;SDS011;766;51.502;9.752;2023-08-07T03:39:45;2.10;;;1.38;;
1545;SDS011;766;51.502;9.752;2023-08-07T03:42:14;1.65;;;1.40;;
1545;SDS011;766;51.502;9.752;2023-08-07T03:44:43;1.98;;;1.00;;
1545;SDS011;766;51.502;9.752;2023-08-07T03:47:11;2.30;;;1.17;;
1545;SDS011;766;51.502;9.752;2023-08-07T03:49:40;1.20;;;1.10;;
1545;SDS011;766;51.502;9.752;2023-08-07T03:52:10;1.25;;;1.15;;
1545;SDS011;766;51.502;9.752;2023-08-07T03:54:38;1.63;;;1.10;;
1545;SDS011;766;51.502;9.752;2023-08-07T03:57:07;2.78;;;1.80;;
1545;SDS011;766;51.502;9.752;2023-08-07T03:59:37;1.40;;;1.30;;
1545;SDS011;766;51.502;9.752;2023-08-07T04:02:05;1.23;;;1.13;;
1545;SDS011;766;51.502;9.752;2023-08-07T04:04:37;1.63;;;0.90;;
1545;SDS011;766;51.502;9.752;2023-08-07T04:07:06;2.78;;;1.10;;
1545;SDS011;766;51.502;9.752;2023-08-07T04:09:36;1.60;;;1.10;;
1545;SDS011;766;51.502;9.752;2023-08-07T04:12:05;1.20;;;1.10;;
1545;SDS011;766;51.502;9.752;2023-08-07T04:14:34;3.15;;;1.20;;
1545;SDS011;766;51.502;9.752;2023-08-07T04:17:02;2.47;;;1.30;;
1545;SDS011;766;51.502;9.752;2023-08-07T04:19:31;2.15;;;1.15;;
1545;SDS011;766;51.502;9.752;2023-08-07T04:22:01;2.13;;;1.60;;
1545;SDS011;766;51.502;9.752;2023-08-07T04:24:31;1.63;;;1.35;;
1545;SDS011;766;51.502;9.752;2023-08-07T04:27:00;1.98;;;1.30;;
1545;SDS011;766;51.502;9.752;2023-08-07T04:29:29;3.53;;;1.83;;
1545;SDS011;766;51.502;9.752;2023-08-07T04:31:57;3.20;;;1.40;;
1545;SDS011;766;51.502;9.752;2023-08-07T04:34:27;2.40;;;1.60;;
1545;SDS011;766;51.502;9.752;2023-08-07T04:36:55;1.73;;;1.60;;
1545;SDS011;766;51.502;9.752;2023-08-07T04:39:25;1.70;;;1.40;;
1545;SDS011;766;51.502;9.752;2023-08-07T04:41:54;4.00;;;2.00;;
1545;SDS011;766;51.502;9.752;2023-08-07T04:44:25;2.53;;;2.15;;
1545;SDS011;766;51.502;9.752;2023-08-07T04:46:55;3.20;;;2.05;;
1545;SDS011;766;51.502;9.752;2023-08-07T04:49:24;4.45;;;2.05;;
1545;SDS011;766;51.502;9.752;2023-08-07T04:51:53;2.63;;;2.10;;
1545;SDS011;766;51.502;9.752;2023-08-07T04:54:22;5.57;;;2.03;;
1545;SDS011;766;51.502;9.752;2023-08-07T04:56:50;3.00;;;2.30;;
1545;SDS011;766;51.502;9.752;2023-08-07T04:59:20;2.67;;;2.47;;
1545;SDS011;766;51.502;9.752;2023-08-07T05:01:50;4.18;;;3.13;;
1545;SDS011;766;51.502;9.752;2023-08-07T05:04:21;6.55;;;3.50;;
1545;SDS011;766;51.502;9.752;2023-08-07T05:06:50;6.32;;;3.03;;
1545;SDS011;766;51.502;9.752;2023-08-07T05:09:19;4.47;;;3.38;;
1545;SDS011;766;51.502;9.752;2023-08-07T05:11:48;4.85;;;3.47;;
1545;SDS011;766;51.502;9.752;2023-08-07T05:14:18;6.68;;;3.55;;
1545;SDS011;766;51.502;9.752;2023-08-07T05:16:47;6.43;;;3.70;;
1545;SDS011;766;51.502;9.752;2023-08-07T05:19:20;5.85;;;3.30;;
1545;SDS011;766;51.502;9.752;2023-08-07T05:21:48;4.72;;;3.53;;
1545;SDS011;766;51.502;9.752;2023-08-07T05:24:17;4.55;;;3.50;;
1545;SDS011;766;51.502;9.752;2023-08-07T05:26:46;4.10;;;2.83;;
1545;SDS011;766;51.502;9.752;2023-08-07T05:29:15;4.18;;;3.00;;
1545;SDS011;766;51.502;9.752;2023-08-07T05:31:43;5.57;;;3.38;;
1545;SDS011;766;51.502;9.752;2023-08-07T05:34:16;6.40;;;2.90;;
1545;SDS011;766;51.502;9.752;2023-08-07T05:36:47;5.32;;;3.00;;
1545;SDS011;766;51.502;9.752;2023-08-07T05:39:17;8.05;;;3.63;;
1545;SDS011;766;51.502;9.752;2023-08-07T05:41:45;4.82;;;3.20;;
1545;SDS011;766;51.502;9.752;2023-08-07T05:44:16;5.43;;;2.92;;
1545;SDS011;766;51.502;9.752;2023-08-07T05:46:44;4.78;;;2.78;;
1545;SDS011;766;51.502;9.752;2023-08-07T05:49:13;5.65;;;3.38;;
1545;SDS011;766;51.502;9.752;2023-08-07T05:51:41;4.28;;;3.08;;
1545;SDS011;766;51.502;9.752;2023-08-07T05:54:13;3.33;;;2.97;;
1545;SDS011;766;51.502;9.752;2023-08-07T05:56:44;7.28;;;3.38;;
1545;SDS011;766;51.502;9.752;2023-08-07T05:59:15;4.28;;;2.90;;
1545;SDS011;766;51.502;9.752;2023-08-07T06:01:46;3.63;;;2.30;;
1545;SDS011;766;51.502;9.752;2023-08-07T06:04:15;3.33;;;2.28;;
1545;SDS011;766;51.502;9.752;2023-08-07T06:06:43;2.40;;;1.83;;
1545;SDS011;766;51.502;9.752;2023-08-07T06:09:13;2.55;;;1.50;;
1545;SDS011;766;51.502;9.752;2023-08-07T06:11:43;1.40;;;1.30;;
1545;SDS011;766;51.502;9.752;2023-08-07T06:14:12;3.58;;;1.30;;
1545;SDS011;766;51.502;9.752;2023-08-07T06:16:43;2.40;;;1.75;;
1545;SDS011;766;51.502;9.752;2023-08-07T06:19:12;3.40;;;1.60;;
1545;SDS011;766;51.502;9.752;2023-08-07T06:21:57;4.95;;;1.63;;
1545;SDS011;766;51.502;9.752;2023-08-07T06:24:27;1.83;;;1.58;;
1545;SDS011;766;51.502;9.752;2023-08-07T08:17:29;0.75;;;0.60;;
1545;SDS011;766;51.502;9.752;2023-08-07T08:19:59;0.90;;;0.68;;
1545;SDS011;766;51.502;9.752;2023-08-07T08:22:28;2.15;;;0.80;;
1545;SDS011;766;51.502;9.752;2023-08-07T08:24:59;1.15;;;0.60;;
1545;SDS011;766;51.502;9.752;2023-08-07T08:27:28;0.60;;;0.60;;
1545;SDS011;766;51.502;9.752;2023-08-07T08:29:57;0.73;;;0.70;;
1545;SDS011;766;51.502;9.752;2023-08-07T08:32:27;0.85;;;0.60;;
1545;SDS011;766;51.502;9.752;2023-08-07T08:34:56;1.67;;;0.70;;
1545;SDS011;766;51.502;9.752;2023-08-07T08:37:25;0.50;;;0.50;;
1545;SDS011;766;51.502;9.752;2023-08-07T08:39:55;0.77;;;0.50;;
1545;SDS011;766;51.502;9.752;2023-08-07T08:42:24;0.82;;;0.73;;
1545;SDS011;766;51.502;9.752;2023-08-07T08:44:54;0.98;;;0.70;;
1545;SDS011;766;51.502;9.752;2023-08-07T08:47:24;1.10;;;0.90;;
1545;SDS011;766;51.502;9.752;2023-08-07T08:49:58;0.52;;;0.52;;
1545;SDS011;766;51.502;9.752;2023-08-07T08:52:30;1.00;;;0.70;;
1545;SDS011;766;51.502;9.752;2023-08-07T08:54:59;2.00;;;0.70;;
1545;SDS011;766;51.502;9.752;2023-08-07T08:57:30;1.00;;;0.90;;
1545;SDS011;766;51.502;9.752;2023-08-07T09:00:00;2.85;;;1.25;;
1545;SDS011;766;51.502;9.752;2023-08-07T09:02:31;3.03;;;1.15;;
1545;SDS011;766;51.502;9.752;2023-08-07T09:05:02;3.63;;;0.90;;
1545;SDS011;766;51.502;9.752;2023-08-07T09:07:31;1.13;;;0.85;;
1545;SDS011;766;51.502;9.752;2023-08-07T09:10:00;1.40;;;0.90;;
1545;SDS011;766;51.502;9.752;2023-08-07T09:12:31;1.85;;;0.90;;
1545;SDS011;766;51.502;9.752;2023-08-07T09:15:03;1.73;;;1.00;;
1545;SDS011;766;51.502;9.752;2023-08-07T09:17:39;2.78;;;1.00;;
1545;SDS011;766;51.502;9.752;2023-08-07T09:20:11;2.40;;;1.20;;
1545;SDS011;766;51.502;9.752;2023-08-07T09:22:41;3.15;;;1.00;;
1545;SDS011;766;51.502;9.752;2023-08-07T09:25:13;2.20;;;1.10;;
1545;SDS011;766;51.502;9.752;2023-08-07T09:27:41;2.55;;;0.93;;
1545;SDS011;766;51.502;9.752;2023-08-07T09:30:10;2.65;;;1.08;;
1545;SDS011;766;51.502;9.752;2023-08-07T09:32:39;3.63;;;1.20;;
1545;SDS011;766;51.502;9.752;2023-08-07T09:35:07;0.98;;;0.90;;
1545;SDS011;766;51.502;9.752;2023-08-07T09:37:43;2.22;;;1.25;;
1545;SDS011;766;51.502;9.752;2023-08-07T09:40:14;3.63;;;1.30;;
1545;SDS011;766;51.502;9.752;2023-08-07T09:42:43;1.95;;;1.23;;
1545;SDS011;766;51.502;9.752;2023-08-07T09:45:20;5.28;;;1.30;;
1545;SDS011;766;51.502;9.752;2023-08-07T09:47:58;2.60;;;1.23;;
1545;SDS011;766;51.502;9.752;2023-08-07T09:50:29;3.05;;;1.45;;
1545;SDS011;766;51.502;9.752;2023-08-07T09:52:58;5.72;;;1.75;;
1545;SDS011;766;51.502;9.752;2023-08-07T09:55:27;3.13;;;1.40;;
1545;SDS011;766;51.502;9.752;2023-08-07T09:57:56;3.70;;;1.30;;
1545;SDS011;766;51.502;9.752;2023-08-07T10:00:24;1.60;;;1.10;;
1545;SDS011;766;51.502;9.752;2023-08-07T10:02:54;2.15;;;1.10;;
1545;SDS011;766;51.502;9.752;2023-08-07T10:05:25;1.67;;;1.05;;
1545;SDS011;766;51.502;9.752;2023-08-07T10:07:57;2.78;;;1.30;;
1545;SDS011;766;51.502;9.752;2023-08-07T10:10:26;2.17;;;1.20;;
1545;SDS011;766;51.502;9.752;2023-08-07T10:12:55;3.05;;;1.45;;
1545;SDS011;766;51.502;9.752;2023-08-07T10:15:27;3.35;;;1.45;;
1545;SDS011;766;51.502;9.752;2023-08-07T10:17:59;3.95;;;1.63;;
1545;SDS011;766;51.502;9.752;2023-08-07T10:20:28;3.13;;;1.40;;
1545;SDS011;766;51.502;9.752;2023-08-07T10:22:59;6.00;;;1.88;;
1545;SDS011;766;51.502;9.752;2023-08-07T10:25:31;5.90;;;1.95;;
1545;SDS011;766;51.502;9.752;2023-08-07T10:28:02;7.10;;;1.50;;
1545;SDS011;766;51.502;9.752;2023-08-07T10:30:33;2.67;;;1.50;;
1545;SDS011;766;51.502;9.752;2023-08-07T10:33:02;5.35;;;1.80;;
1545;SDS011;766;51.502;9.752;2023-08-07T10:35:33;3.20;;;1.90;;
1545;SDS011;766;51.502;9.752;2023-08-07T10:38:06;4.18;;;1.40;;
1545;SDS011;766;51.502;9.752;2023-08-07T10:40:43;3.17;;;1.73;;
1545;SDS011;766;51.502;9.752;2023-08-07T10:43:26;2.53;;;1.63;;
1545;SDS011;766;51.502;9.752;2023-08-07T10:45:59;3.25;;;1.35;;
1545;SDS011;766;51.502;9.752;2023-08-07T10:48:37;3.45;;;1.60;;
1545;SDS011;766;51.502;9.752;2023-08-07T10:51:07;1.92;;;1.40;;
1545;SDS011;766;51.502;9.752;2023-08-07T10:53:37;5.28;;;1.60;;
1545;SDS011;766;51.502;9.752;2023-08-07T10:56:09;5.38;;;1.67;;
1545;SDS011;766;51.502;9.752;2023-08-07T10:58:38;7.68;;;1.70;;
1545;SDS011;766;51.502;9.752;2023-08-07T11:01:26;4.40;;;1.30;;
1545;SDS011;766;51.502;9.752;2023-08-07T11:04:08;8.55;;;1.70;;
1545;SDS011;766;51.502;9.752;2023-08-07T11:06:38;2.33;;;1.23;;
1545;SDS011;766;51.502;9.752;2023-08-07T11:09:10;2.97;;;1.48;;
1545;SDS011;766;51.502;9.752;2023-08-07T11:11:38;6.57;;;1.83;;
1545;SDS011;766;51.502;9.752;2023-08-07T11:14:08;2.85;;;1.27;;
1545;SDS011;766;51.502;9.752;2023-08-07T11:16:38;3.50;;;1.65;;
1545;SDS011;766;51.502;9.752;2023-08-07T11:19:07;5.90;;;1.60;;
1545;SDS011;766;51.502;9.752;2023-08-07T11:21:36;3.67;;;1.50;;
1545;SDS011;766;51.502;9.752;2023-08-07T11:24:05;4.57;;;1.67;;
1545;SDS011;766;51.502;9.752;2023-08-07T11:26:35;6.32;;;2.05;;
1545;SDS011;766;51.502;9.752;2023-08-07T11:29:05;4.15;;;1.25;;
1545;SDS011;766;51.502;9.752;2023-08-07T11:31:36;4.20;;;1.33;;
1545;SDS011;766;51.502;9.752;2023-08-07T11:34:07;4.47;;;1.48;;
1545;SDS011;766;51.502;9.752;2023-08-07T11:36:40;3.00;;;1.00;;
1545;SDS011;766;51.502;9.752;2023-08-07T11:39:11;4.40;;;1.50;;
1545;SDS011;766;51.502;9.752;2023-08-07T11:41:42;3.25;;;1.00;;
1545;SDS011;766;51.502;9.752;2023-08-07T11:44:11;3.22;;;1.35;;
1545;SDS011;766;51.502;9.752;2023-08-07T11:46:40;5.88;;;1.70;;
1545;SDS011;766;51.502;9.752;2023-08-07T11:49:10;3.35;;;1.00;;
1545;SDS011;766;51.502;9.752;2023-08-07T11:51:39;6.32;;;1.40;;
1545;SDS011;766;51.502;9.752;2023-08-07T11:54:13;5.90;;;1.30;;
1545;SDS011;766;51.502;9.752;2023-08-07T11:56:43;4.10;;;1.23;;
1545;SDS011;766;51.502;9.752;2023-08-07T11:59:16;5.18;;;1.40;;
1545;SDS011;766;51.502;9.752;2023-08-07T12:01:59;7.00;;;1.63;;
1545;SDS011;766;51.502;9.752;2023-08-07T12:04:37;3.45;;;1.35;;
1545;SDS011;766;51.502;9.752;2023-08-07T12:07:06;5.03;;;1.67;;
1545;SDS011;766;51.502;9.752;2023-08-07T12:09:39;5.45;;;1.60;;
1545;SDS011;766;51.502;9.752;2023-08-07T12:12:20;2.80;;;1.23;;
1545;SDS011;766;51.502;9.752;2023-08-07T12:14:53;3.97;;;1.55;;
1545;SDS011;766;51.502;9.752;2023-08-07T12:17:30;5.40;;;1.80;;
1545;SDS011;766;51.502;9.752;2023-08-07T12:20:00;4.50;;;1.73;;
1545;SDS011;766;51.502;9.752;2023-08-07T12:22:30;6.78;;;1.80;;
1545;SDS011;766;51.502;9.752;2023-08-07T12:24:59;4.50;;;1.48;;
1545;SDS011;766;51.502;9.752;2023-08-07T12:27:31;8.75;;;2.17;;
1545;SDS011;766;51.502;9.752;2023-08-07T12:30:00;5.32;;;1.73;;
1545;SDS011;766;51.502;9.752;2023-08-07T12:32:31;5.18;;;1.40;;
1545;SDS011;766;51.502;9.752;2023-08-07T12:35:03;4.28;;;1.42;;
1545;SDS011;766;51.502;9.752;2023-08-07T12:37:38;2.95;;;1.33;;
1545;SDS011;766;51.502;9.752;2023-08-07T12:40:09;7.75;;;1.92;;
1545;SDS011;766;51.502;9.752;2023-08-07T12:42:43;4.55;;;1.55;;
1545;SDS011;766;51.502;9.752;2023-08-07T12:45:11;3.72;;;1.55;;
1545;SDS011;766;51.502;9.752;2023-08-07T12:47:44;5.07;;;1.50;;
1545;SDS011;766;51.502;9.752;2023-08-07T12:50:15;2.08;;;1.58;;
1545;SDS011;766;51.502;9.752;2023-08-07T12:52:45;5.90;;;1.50;;
1545;SDS011;766;51.502;9.752;2023-08-07T12:55:16;6.47;;;1.60;;
1545;SDS011;766;51.502;9.752;2023-08-07T12:57:46;4.88;;;2.00;;
1545;SDS011;766;51.502;9.752;2023-08-07T13:00:16;4.28;;;1.20;;
1545;SDS011;766;51.502;9.752;2023-08-07T13:02:47;2.45;;;1.40;;
1545;SDS011;766;51.502;9.752;2023-08-07T13:05:20;7.45;;;2.35;;
1545;SDS011;766;51.502;9.752;2023-08-07T13:07:51;3.53;;;1.48;;
1545;SDS011;766;51.502;9.752;2023-08-07T13:10:28;3.72;;;1.60;;
1545;SDS011;766;51.502;9.752;2023-08-07T13:12:59;7.65;;;2.47;;
1545;SDS011;766;51.502;9.752;2023-08-07T13:15:30;7.35;;;1.92;;
1545;SDS011;766;51.502;9.752;2023-08-07T13:18:01;4.10;;;1.98;;
1545;SDS011;766;51.502;9.752;2023-08-07T13:20:31;4.72;;;1.80;;
1545;SDS011;766;51.502;9.752;2023-08-07T13:23:01;8.93;;;2.50;;
1545;SDS011;766;51.502;9.752;2023-08-07T13:25:33;6.35;;;1.88;;
1545;SDS011;766;51.502;9.752;2023-08-07T13:28:07;8.43;;;2.17;;
1545;SDS011;766;51.502;9.752;2023-08-07T13:30:37;6.50;;;2.67;;
1545;SDS011;766;51.502;9.752;2023-08-07T13:33:09;6.18;;;2.55;;
1545;SDS011;766;51.502;9.752;2023-08-07T13:35:37;7.75;;;2.65;;
1545;SDS011;766;51.502;9.752;2023-08-07T13:38:07;9.00;;;2.75;;
1545;SDS011;766;51.502;9.752;2023-08-07T13:40:37;5.57;;;2.45;;
1545;SDS011;766;51.502;9.752;2023-08-07T13:43:06;8.27;;;2.70;;
1545;SDS011;766;51.502;9.752;2023-08-07T13:45:36;8.98;;;2.60;;
1545;SDS011;766;51.502;9.752;2023-08-07T13:48:05;6.30;;;2.70;;
1545;SDS011;766;51.502;9.752;2023-08-07T13:50:36;8.93;;;3.08;;
1545;SDS011;766;51.502;9.752;2023-08-07T13:53:05;4.40;;;2.70;;
1545;SDS011;766;51.502;9.752;2023-08-07T13:55:40;8.30;;;2.60;;
1545;SDS011;766;51.502;9.752;2023-08-07T13:58:11;7.70;;;2.47;;
1545;SDS011;766;51.502;9.752;2023-08-07T14:00:42;7.20;;;2.47;;
1545;SDS011;766;51.502;9.752;2023-08-07T14:03:10;4.70;;;2.50;;
1545;SDS011;766;51.502;9.752;2023-08-07T14:05:41;5.55;;;2.47;;
1545;SDS011;766;51.502;9.752;2023-08-07T14:08:13;8.73;;;2.70;;
1545;SDS011;766;51.502;9.752;2023-08-07T14:10:41;8.90;;;2.90;;
1545;SDS011;766;51.502;9.752;2023-08-07T14:13:11;8.60;;;2.45;;
1545;SDS011;766;51.502;9.752;2023-08-07T14:15:40;14.23;;;2.70;;
1545;SDS011;766;51.502;9.752;2023-08-07T14:18:09;10.25;;;3.00;;
1545;SDS011;766;51.502;9.752;2023-08-07T14:20:38;5.97;;;2.30;;
1545;SDS011;766;51.502;9.752;2023-08-07T14:23:26;5.05;;;2.13;;
1545;SDS011;766;51.502;9.752;2023-08-07T14:25:57;5.22;;;2.25;;
1545;SDS011;766;51.502;9.752;2023-08-07T14:28:27;7.32;;;2.30;;
1545;SDS011;766;51.502;9.752;2023-08-07T14:30:56;7.55;;;2.88;;
1545;SDS011;766;51.502;9.752;2023-08-07T14:33:27;6.53;;;2.58;;
1545;SDS011;766;51.502;9.752;2023-08-07T14:35:58;8.48;;;2.38;;
1545;SDS011;766;51.502;9.752;2023-08-07T14:38:28;7.90;;;2.20;;
1545;SDS011;766;51.502;9.752;2023-08-07T14:40:57;4.47;;;1.80;;
1545;SDS011;766;51.502;9.752;2023-08-07T14:43:28;4.88;;;1.73;;
1545;SDS011;766;51.502;9.752;2023-08-07T14:45:58;7.72;;;2.30;;
1545;SDS011;766;51.502;9.752;2023-08-07T14:48:28;6.80;;;1.95;;
1545;SDS011;766;51.502;9.752;2023-08-07T14:50:58;6.68;;;1.85;;
1545;SDS011;766;51.502;9.752;2023-08-07T14:53:30;5.88;;;1.40;;
1545;SDS011;766;51.502;9.752;2023-08-07T14:56:10;3.78;;;1.50;;
1545;SDS011;766;51.502;9.752;2023-08-07T14:58:39;3.85;;;1.77;;
1545;SDS011;766;51.502;9.752;2023-08-07T15:01:08;3.38;;;1.80;;
1545;SDS011;766;51.502;9.752;2023-08-07T15:03:36;5.05;;;2.08;;
1545;SDS011;766;51.502;9.752;2023-08-07T15:06:06;8.65;;;1.88;;
1545;SDS011;766;51.502;9.752;2023-08-07T15:08:34;5.40;;;1.75;;
1545;SDS011;766;51.502;9.752;2023-08-07T15:11:02;2.40;;;1.50;;
1545;SDS011;766;51.502;9.752;2023-08-07T15:13:31;4.60;;;1.83;;
1545;SDS011;766;51.502;9.752;2023-08-07T15:16:01;6.20;;;1.88;;
1545;SDS011;766;51.502;9.752;2023-08-07T15:18:30;6.80;;;1.67;;
1545;SDS011;766;51.502;9.752;2023-08-07T15:20:58;4.35;;;1.45;;
1545;SDS011;766;51.502;9.752;2023-08-07T15:23:28;3.50;;;1.40;;
1545;SDS011;766;51.502;9.752;2023-08-07T15:25:57;8.48;;;2.33;;
1545;SDS011;766;51.502;9.752;2023-08-07T15:28:26;7.15;;;1.90;;
1545;SDS011;766;51.502;9.752;2023-08-07T15:30:55;6.88;;;1.80;;
1545;SDS011;766;51.502;9.752;2023-08-07T15:33:24;7.90;;;1.90;;
1545;SDS011;766;51.502;9.752;2023-08-07T15:35:53;13.05;;;2.80;;
1545;SDS011;766;51.502;9.752;2023-08-07T15:38:23;7.90;;;2.28;;
1545;SDS011;766;51.502;9.752;2023-08-07T15:40:51;9.73;;;2.15;;
1545;SDS011;766;51.502;9.752;2023-08-07T15:43:20;10.40;;;2.05;;
1545;SDS011;766;51.502;9.752;2023-08-07T15:45:50;4.95;;;2.15;;
1545;SDS011;766;51.502;9.752;2023-08-07T15:48:20;3.72;;;1.80;;
1545;SDS011;766;51.502;9.752;2023-08-07T15:50:50;3.70;;;1.65;;
1545;SDS011;766;51.502;9.752;2023-08-07T15:53:18;6.15;;;2.20;;
1545;SDS011;766;51.502;9.752;2023-08-07T15:55:46;5.30;;;1.95;;
1545;SDS011;766;51.502;9.752;2023-08-07T15:58:15;6.18;;;2.08;;
1545;SDS011;766;51.502;9.752;2023-08-07T16:00:44;8.20;;;2.30;;
1545;SDS011;766;51.502;9.752;2023-08-07T16:03:13;6.43;;;2.30;;
1545;SDS011;766;51.502;9.752;2023-08-07T16:05:41;5.15;;;2.92;;
1545;SDS011;766;51.502;9.752;2023-08-07T16:08:11;8.02;;;2.40;;
1545;SDS011;766;51.502;9.752;2023-08-07T16:10:39;8.10;;;2.30;;
1545;SDS011;766;51.502;9.752;2023-08-07T16:13:08;6.43;;;2.20;;
1545;SDS011;766;51.502;9.752;2023-08-07T16:15:46;7.35;;;2.10;;
1545;SDS011;766;51.502;9.752;2023-08-07T16:18:20;17.83;;;5.47;;
1545;SDS011;766;51.502;9.752;2023-08-07T16:20:48;14.00;;;6.22;;
1545;SDS011;766;51.502;9.752;2023-08-07T16:23:18;8.98;;;4.07;;
1545;SDS011;766;51.502;9.752;2023-08-07T16:25:47;13.60;;;3.50;;
1545;SDS011;766;51.502;9.752;2023-08-07T16:28:16;6.13;;;2.72;;
1545;SDS011;766;51.502;9.752;2023-08-07T16:30:45;5.95;;;2.28;;
1545;SDS011;766;51.502;9.752;2023-08-07T16:33:14;5.57;;;1.90;;
1545;SDS011;766;51.502;9.752;2023-08-07T16:35:42;4.15;;;2.00;;
1545;SDS011;766;51.502;9.752;2023-08-07T16:38:12;6.05;;;1.85;;
1545;SDS011;766;51.502;9.752;2023-08-07T16:40:42;5.85;;;1.90;;
1545;SDS011;766;51.502;9.752;2023-08-07T16:43:10;4.13;;;1.60;;
1545;SDS011;766;51.502;9.752;2023-08-07T16:45:39;3.65;;;1.70;;
1545;SDS011;766;51.502;9.752;2023-08-07T16:48:08;4.97;;;1.98;;
1545;SDS011;766;51.502;9.752;2023-08-07T16:50:36;7.38;;;1.80;;
1545;SDS011;766;51.502;9.752;2023-08-07T16:53:07;8.55;;;2.00;;
1545;SDS011;766;51.502;9.752;2023-08-07T16:55:35;6.75;;;1.90;;
1545;SDS011;766;51.502;9.752;2023-08-07T16:58:05;3.83;;;1.88;;
1545;SDS011;766;51.502;9.752;2023-08-07T17:00:33;5.82;;;2.65;;
1545;SDS011;766;51.502;9.752;2023-08-07T17:03:02;5.80;;;1.90;;
1545;SDS011;766;51.502;9.752;2023-08-07T17:05:31;5.68;;;1.90;;
1545;SDS011;766;51.502;9.752;2023-08-07T17:07:59;6.28;;;2.38;;
1545;SDS011;766;51.502;9.752;2023-08-07T17:10:27;3.90;;;1.85;;
1545;SDS011;766;51.502;9.752;2023-08-07T17:12:56;6.30;;;1.95;;
1545;SDS011;766;51.502;9.752;2023-08-07T17:15:26;8.43;;;2.10;;
1545;SDS011;766;51.502;9.752;2023-08-07T17:17:57;4.63;;;2.10;;
1545;SDS011;766;51.502;9.752;2023-08-07T17:20:25;8.77;;;2.15;;
1545;SDS011;766;51.502;9.752;2023-08-07T17:22:54;6.35;;;1.63;;
1545;SDS011;766;51.502;9.752;2023-08-07T17:25:22;5.75;;;1.98;;
1545;SDS011;766;51.502;9.752;2023-08-07T17:27:53;5.20;;;2.00;;
1545;SDS011;766;51.502;9.752;2023-08-07T17:30:22;7.35;;;1.90;;
1545;SDS011;766;51.502;9.752;2023-08-07T17:32:51;5.68;;;2.03;;
1545;SDS011;766;51.502;9.752;2023-08-07T17:35:20;5.28;;;2.45;;
1545;SDS011;766;51.502;9.752;2023-08-07T17:37:48;4.90;;;2.05;;